Time;durP1;ratioP1;P1;durP2;ratioP2;P2;SDS_P1;SDS_P2;PMS_P1;PMS_P2;Temp;Humidity;BMP_temperature;BMP_pressure;BME280_temperature;BME280_humidity;BME280_pressure;Samples;Min_cycle;Max_cycle;Signal;HPM_P1;HPM_P2
2023/06/14 00:01:53;;;;;;;15.55;7.15;;;;;;;16.92;100.00;98152.19;5102682;28;20051;-93
2023/06/14 00:04:21;;;;;;;15.60;7.57;;;;;;;17.04;100.00;98182.75;5103607;28;20050;-92
2023/06/14 00:06:50;;;;;;;19.45;8.10;;;;;;;16.70;100.00;98158.00;5103767;28;20052;-92
2023/06/14 00:09:17;;;;;;;18.27;7.80;;;;;;;16.66;100.00;98145.72;5104043;28;20032;-91
2023/06/14 00:11:44;;;;;;;15.05;6.93;;;;;;;16.74;100.00;98164.91;5103868;28;20036;-91
2023/06/14 00:14:10;;;;;;;16.05;7.40;;;;;;;16.81;100.00;98177.00;5103799;28;20040;-92
2023/06/14 00:16:38;;;;;;;15.32;6.65;;;;;;;16.95;100.00;98183.34;5104414;28;20040;-92
2023/06/14 00:19:05;;;;;;;15.20;6.78;;;;;;;16.86;100.00;98184.78;5100134;28;20112;-91
2023/06/14 00:21:32;;;;;;;15.38;6.75;;;;;;;16.68;100.00;98148.31;5100614;28;20059;-92
2023/06/14 00:23:59;;;;;;;14.40;7.32;;;;;;;16.82;100.00;98173.34;5100277;28;20048;-92
2023/06/14 00:26:26;;;;;;;17.10;7.53;;;;;;;16.83;100.00;98174.25;5100672;28;20048;-91
2023/06/14 00:28:52;;;;;;;16.15;7.30;;;;;;;16.75;100.00;98161.25;5103749;28;20044;-92
2023/06/14 00:31:18;;;;;;;18.20;8.13;;;;;;;16.72;100.00;98149.81;5102844;28;20036;-92
2023/06/14 00:33:44;;;;;;;15.32;7.25;;;;;;;16.94;100.00;98182.50;5102540;28;20516;-92
2023/06/14 00:36:10;;;;;;;18.35;7.93;;;;;;;16.69;100.00;98139.28;5103514;28;20047;-92
2023/06/14 00:38:37;;;;;;;18.38;8.40;;;;;;;16.84;100.00;98160.69;5102838;28;20044;-91
2023/06/14 00:41:04;;;;;;;15.48;7.85;;;;;;;16.74;100.00;98147.91;5103063;28;20497;-92
2023/06/14 00:43:30;;;;;;;21.13;8.88;;;;;;;16.95;100.00;98177.97;5103467;28;20044;-93
2023/06/14 00:45:56;;;;;;;22.00;9.45;;;;;;;16.75;100.00;98161.25;5103355;28;20051;-92
2023/06/14 00:48:23;;;;;;;16.42;7.60;;;;;;;16.90;100.00;98155.94;5103429;28;20036;-93
2023/06/14 00:50:50;;;;;;;16.50;7.53;;;;;;;16.99;100.00;98166.09;5104646;28;20494;-92
2023/06/14 00:53:17;;;;;;;14.43;6.97;;;;;;;17.01;100.00;98145.38;5102996;28;20069;-93
2023/06/14 00:55:44;;;;;;;15.20;7.93;;;;;;;17.04;100.00;98151.41;5103814;28;20432;-92
2023/06/14 00:58:11;;;;;;;14.02;7.63;;;;;;;16.81;100.00;98127.81;5103452;28;20813;-92
2023/06/14 01:00:37;;;;;;;19.30;7.45;;;;;;;16.84;100.00;98139.22;5101106;28;20044;-92
2023/06/14 01:03:03;;;;;;;15.60;7.47;;;;;;;16.85;100.00;98150.84;5103362;28;20154;-92
2023/06/14 01:05:30;;;;;;;16.40;7.55;;;;;;;16.76;100.00;98136.13;5102850;28;20051;-92
2023/06/14 01:08:11;;;;;;;12.77;7.30;;;;;;;16.70;100.00;98124.88;5103499;28;20062;-92
2023/06/14 01:10:44;;;;;;;14.57;6.90;;;;;;;16.71;100.00;98115.91;5103883;28;20044;-93
2023/06/14 01:13:20;;;;;;;21.38;7.70;;;;;;;16.85;100.00;98148.16;5100090;28;20070;-93
2023/06/14 01:15:47;;;;;;;18.05;7.57;;;;;;;16.91;100.00;98158.50;5101329;28;20036;-93
2023/06/14 01:18:17;;;;;;;16.92;7.10;;;;;;;16.64;100.00;98126.16;5103352;28;20036;-91
2023/06/14 01:20:44;;;;;;;13.82;7.07;;;;;;;16.63;100.00;98124.41;5101189;28;20398;-93
2023/06/14 01:23:12;;;;;;;14.73;6.32;;;;;;;16.74;100.00;98131.78;5101872;28;20040;-92
2023/06/14 01:25:38;;;;;;;12.93;6.82;;;;;;;16.81;100.00;98134.06;5105279;28;20062;-96
2023/06/14 01:28:14;;;;;;;16.10;7.00;;;;;;;16.92;100.00;98136.06;5104495;28;20036;-92
2023/06/14 01:30:44;;;;;;;14.52;6.35;;;;;;;16.80;100.00;98109.97;5103982;28;20067;-93
2023/06/14 01:33:12;;;;;;;12.93;5.95;;;;;;;16.94;100.00;98122.53;5105116;28;20040;-93
2023/06/14 01:35:38;;;;;;;13.43;6.72;;;;;;;16.92;100.00;98111.03;5107154;28;20036;-93
2023/06/14 01:38:06;;;;;;;14.05;7.07;;;;;;;17.09;100.00;98136.81;5106698;28;20040;-95
2023/06/14 01:40:35;;;;;;;17.80;6.75;;;;;;;17.15;100.00;98139.09;5106434;28;20051;-92
2023/06/14 01:43:02;;;;;;;20.60;6.68;;;;;;;17.03;100.00;98122.81;5105864;28;20067;-93
2023/06/14 01:45:29;;;;;;;14.73;6.40;;;;;;;17.02;100.00;98126.47;5106467;28;20047;-93
2023/06/14 01:47:55;;;;;;;20.38;7.03;;;;;;;16.93;100.00;98113.59;5106712;28;20040;-93
2023/06/14 01:50:21;;;;;;;14.95;7.43;;;;;;;17.13;100.00;98139.22;5107423;28;20073;-93
2023/06/14 01:52:47;;;;;;;17.13;7.60;;;;;;;16.94;100.00;98115.34;5107159;28;20060;-93
2023/06/14 01:55:14;;;;;;;18.08;7.18;;;;;;;16.96;100.00;98126.00;5105114;28;20063;-93
2023/06/14 01:57:41;;;;;;;16.35;7.68;;;;;;;16.92;100.00;98119.09;5106307;28;20040;-93
2023/06/14 02:00:10;;;;;;;15.82;6.97;;;;;;;16.93;100.00;98126.19;5103614;28;20614;-92
2023/06/14 02:02:36;;;;;;;14.63;7.55;;;;;;;17.09;100.00;98145.75;5101003;28;20067;-95
2023/06/14 02:05:02;;;;;;;15.77;7.32;;;;;;;17.06;100.00;98131.63;5101068;28;20040;-94
2023/06/14 02:07:28;;;;;;;19.05;8.07;;;;;;;17.01;100.00;98116.66;5102622;28;20051;-90
2023/06/14 02:09:54;;;;;;;14.05;6.80;;;;;;;16.90;100.00;98103.06;5102761;28;20044;-92
2023/06/14 02:12:20;;;;;;;11.40;6.07;;;;;;;16.88;100.00;98096.94;5105932;28;20040;-92
2023/06/14 02:14:48;;;;;;;10.68;6.00;;;;;;;17.07;100.00;98128.84;5106408;28;20047;-92
2023/06/14 02:17:14;;;;;;;13.93;5.43;;;;;;;16.90;100.00;98097.69;5105008;28;20046;-91
2023/06/14 02:19:41;;;;;;;15.57;5.65;;;;;;;16.88;100.00;98118.41;5104890;28;20071;-92
2023/06/14 02:22:07;;;;;;;25.73;6.47;;;;;;;16.67;100.00;98125.09;5104282;28;20127;-92
2023/06/14 02:24:33;;;;;;;8.23;4.90;;;;;;;16.60;100.00;98119.25;5102257;28;20059;-92
2023/06/14 02:26:59;;;;;;;9.65;5.05;;;;;;;16.35;100.00;98085.88;5101940;28;20074;-94
2023/06/14 02:29:25;;;;;;;11.15;5.05;;;;;;;16.44;100.00;98092.50;5099825;28;20051;-91
2023/06/14 02:31:53;;;;;;;11.52;5.80;;;;;;;16.76;100.00;98125.41;5098633;28;20036;-93
2023/06/14 02:34:20;;;;;;;13.38;5.18;;;;;;;16.57;100.00;98100.66;5099687;28;20040;-93
2023/06/14 02:36:47;;;;;;;14.15;6.13;;;;;;;16.52;100.00;98087.50;5104544;28;20044;-93
2023/06/14 02:39:14;;;;;;;12.35;5.30;;;;;;;16.52;100.00;98087.50;5095531;28;20044;-92
2023/06/14 02:41:40;;;;;;;9.73;5.30;;;;;;;16.51;100.00;98091.16;5095193;28;20039;-94
2023/06/14 02:44:07;;;;;;;10.45;5.35;;;;;;;16.64;100.00;98099.31;5103904;28;20043;-94
2023/06/14 02:46:33;;;;;;;11.02;5.60;;;;;;;16.61;100.00;98078.00;5115117;28;20044;-91
2023/06/14 02:49:01;;;;;;;13.02;5.30;;;;;;;16.58;100.00;98084.44;5114873;27;20481;-92
2023/06/14 02:51:27;;;;;;;11.55;5.38;;;;;;;16.46;100.00;98074.50;5115294;27;20035;-92
2023/06/14 02:53:53;;;;;;;10.55;6.28;;;;;;;16.53;100.00;98085.69;5112095;28;20048;-92
2023/06/14 02:56:19;;;;;;;13.13;6.30;;;;;;;16.47;100.00;98072.66;5116603;27;20048;-94
2023/06/14 02:58:46;;;;;;;11.75;5.95;;;;;;;16.50;100.00;98076.00;5109226;27;20043;-92
2023/06/14 03:01:13;;;;;;;12.95;6.22;;;;;;;16.55;100.00;98078.41;5112400;27;20073;-92
2023/06/14 03:03:39;;;;;;;11.65;5.90;;;;;;;16.64;100.00;98088.56;5133625;27;20032;-93
2023/06/14 03:06:08;;;;;;;11.93;5.95;;;;;;;16.59;100.00;98094.22;5113916;27;20096;-92
2023/06/14 03:08:38;;;;;;;15.27;6.17;;;;;;;16.38;100.00;98076.78;5119944;27;20043;-92
2023/06/14 03:11:05;;;;;;;13.18;5.47;;;;;;;16.39;100.00;98086.53;5113224;27;20561;-93
2023/06/14 03:13:33;;;;;;;9.23;5.15;;;;;;;16.31;100.00;98078.09;5107351;28;20057;-93
2023/06/14 03:16:02;;;;;;;12.40;5.90;;;;;;;16.40;100.00;98096.34;5104640;28;20047;-92
2023/06/14 03:18:30;;;;;;;9.73;5.07;;;;;;;16.30;100.00;98074.56;5107191;28;20036;-92
2023/06/14 03:20:57;;;;;;;10.57;5.55;;;;;;;16.32;100.00;98075.31;5108858;28;20039;-92
2023/06/14 03:23:25;;;;;;;11.27;5.63;;;;;;;16.30;100.00;98069.19;5108765;28;20036;-93
2023/06/14 03:25:51;;;;;;;10.68;5.65;;;;;;;16.31;100.00;98075.41;5113028;28;20047;-93
2023/06/14 03:28:17;;;;;;;12.18;5.38;;;;;;;16.37;100.00;98096.50;5107954;28;20127;-93
2023/06/14 03:30:43;;;;;;;9.20;5.22;;;;;;;16.29;100.00;98070.16;5108447;28;20050;-93
2023/06/14 03:33:10;;;;;;;10.48;5.25;;;;;;;16.29;100.00;98077.34;5108773;28;20519;-92
2023/06/14 03:35:36;;;;;;;9.77;5.10;;;;;;;16.21;100.00;98075.97;5107005;28;20039;-93
2023/06/14 03:38:03;;;;;;;9.73;4.70;;;;;;;16.34;100.00;98097.56;5108729;28;20043;-93
2023/06/14 03:40:31;;;;;;;10.93;5.43;;;;;;;16.41;100.00;98114.13;5107585;28;20496;-93
2023/06/14 03:42:57;;;;;;;13.43;5.05;;;;;;;16.39;100.00;98099.94;5109615;28;20040;-92
2023/06/14 03:45:23;;;;;;;9.55;5.13;;;;;;;16.33;100.00;98089.59;5108993;28;20047;-93
2023/06/14 03:47:50;;;;;;;8.57;4.88;;;;;;;16.46;100.00;98108.47;5109133;28;20070;-92
2023/06/14 03:50:18;;;;;;;9.73;4.75;;;;;;;16.40;100.00;98090.97;5126518;28;20047;-92
2023/06/14 03:52:44;;;;;;;10.65;4.82;;;;;;;16.49;100.00;98102.94;5109265;28;20088;-92
2023/06/14 03:55:13;;;;;;;10.85;4.68;;;;;;;16.62;100.00;98114.66;5108986;28;20043;-92
2023/06/14 03:57:40;;;;;;;;;;;;;;;16.82;100.00;98145.66;5109728;28;20040;-92
2023/06/14 04:00:08;;;;;;;9.63;4.47;;;;;;;16.69;100.00;98109.75;5108340;28;20368;-94
2023/06/14 04:02:36;;;;;;;8.02;4.22;;;;;;;16.77;100.00;98118.19;5108585;28;20039;-92
2023/06/14 04:05:03;;;;;;;8.60;4.43;;;;;;;16.77;100.00;98108.31;5099625;28;20044;-93
2023/06/14 04:07:29;;;;;;;8.57;4.82;;;;;;;16.80;100.00;98107.28;5108844;28;20036;-93
2023/06/14 04:09:55;;;;;;;9.38;4.60;;;;;;;16.95;100.00;98127.78;5109014;28;20039;-93
2023/06/14 04:12:21;;;;;;;9.05;4.78;;;;;;;16.88;100.00;98113.03;5108561;28;20043;-93
2023/06/14 04:14:49;;;;;;;9.25;4.45;;;;;;;17.01;100.00;98130.09;5107312;28;20390;-93
2023/06/14 04:17:15;;;;;;;9.17;4.87;;;;;;;17.07;100.00;98131.53;5107736;28;20060;-93
2023/06/14 04:19:41;;;;;;;7.75;4.32;;;;;;;17.01;100.00;98116.66;5109030;28;20047;-93
2023/06/14 04:22:08;;;;;;;8.32;4.20;;;;;;;17.08;100.00;98116.28;5108288;28;20418;-92
2023/06/14 04:24:34;;;;;;;8.85;4.13;;;;;;;17.09;100.00;98123.38;5107816;28;20043;-92
2023/06/14 04:27:02;;;;;;;6.78;4.07;;;;;;;17.15;100.00;98122.97;5107207;28;20067;-93
2023/06/14 04:29:29;;;;;;;8.27;4.03;;;;;;;17.16;100.00;98128.25;5106326;28;20044;-93
2023/06/14 04:32:01;;;;;;;6.93;4.28;;;;;;;17.25;100.00;98143.78;5107146;28;20113;-94
2023/06/14 04:34:29;;;;;;;9.05;4.10;;;;;;;17.21;100.00;98125.28;5106812;28;20096;-95
2023/06/14 04:36:56;;;;;;;7.20;4.00;;;;;;;17.36;100.00;98151.16;5102401;28;20040;-93
2023/06/14 04:39:22;;;;;;;7.13;3.85;;;;;;;17.20;100.00;98115.50;5085993;28;20044;-94
2023/06/14 04:41:52;;;;;;;7.88;3.80;;;;;;;17.32;100.00;98141.56;5089964;28;20055;-93
2023/06/14 04:44:20;;;;;;;7.57;3.70;;;;;;;17.27;100.00;98134.78;5086844;28;20108;-93
2023/06/14 04:46:46;;;;;;;5.97;3.53;;;;;;;17.31;100.00;98131.78;5087579;28;20121;-93
2023/06/14 04:49:17;;;;;;;6.72;3.83;;;;;;;17.39;100.00;98140.22;5092592;28;20040;-94
2023/06/14 04:52:31;;;;;;;12.20;4.85;;;;;;;17.53;100.00;98162.66;5086894;28;20070;-92
2023/06/14 04:54:58;;;;;;;5.70;3.40;;;;;;;17.51;100.00;98160.06;5087720;28;20038;-94
2023/06/14 04:57:25;;;;;;;5.60;3.47;;;;;;;17.25;100.00;98119.59;5088318;28;20032;-93
2023/06/14 04:59:54;;;;;;;5.88;3.63;;;;;;;17.29;100.00;98139.09;5090704;28;20527;-91
2023/06/14 05:02:22;;;;;;;7.53;3.80;;;;;;;17.22;100.00;98145.81;5096621;28;20043;-94
2023/06/14 05:04:50;;;;;;;6.45;3.60;;;;;;;17.24;100.00;98150.13;5088718;28;20485;-92
2023/06/14 05:07:16;;;;;;;7.55;3.95;;;;;;;17.22;100.00;98119.81;5090203;28;20056;-92
2023/06/14 05:09:42;;;;;;;5.75;3.50;;;;;;;17.32;100.00;98113.84;5104649;28;20070;-94
2023/06/14 05:12:09;;;;;;;7.25;3.50;;;;;;;17.44;100.00;98121.97;5088846;28;20119;-93
2023/06/14 05:14:35;;;;;;;7.78;3.90;;;;;;;17.62;100.00;98129.78;5087520;28;20386;-94
2023/06/14 05:17:02;;;;;;;6.80;3.75;;;;;;;17.80;100.00;98141.13;5085095;28;20147;-94
2023/06/14 05:19:31;;;;;;;7.50;3.67;;;;;;;17.76;100.00;98120.78;5091963;28;20044;-93
2023/06/14 05:21:59;;;;;;;7.82;3.45;;;;;;;17.74;100.00;98115.53;5092678;28;20044;-94
2023/06/14 05:24:25;;;;;;;6.93;3.58;;;;;;;17.88;100.00;98135.28;5096336;28;20396;-94
2023/06/14 05:26:51;;;;;;;6.90;3.55;;;;;;;17.85;100.00;98115.69;5111673;28;20043;-94
2023/06/14 05:29:17;;;;;;;5.13;3.08;;;;;;;18.08;100.00;98134.78;5112042;28;20043;-94
2023/06/14 05:31:43;;;;;;;7.00;3.83;;;;;;;18.12;100.00;98124.69;5112135;28;20114;-94
2023/06/14 05:34:09;;;;;;;6.05;3.70;;;;;;;18.26;100.00;98130.88;5112712;28;20047;-93
2023/06/14 05:36:36;;;;;;;6.07;3.33;;;;;;;18.26;100.00;98114.72;5112306;28;20059;-93
2023/06/14 05:39:05;;;;;;;6.45;3.50;;;;;;;18.33;100.00;98107.06;5112098;28;20074;-94
2023/06/14 05:41:31;;;;;;;;;;;;;;;18.32;100.00;98150.25;5113121;28;20111;-94
2023/06/14 05:43:57;;;;;;;6.55;3.55;;;;;;;18.11;100.00;98120.25;5108461;28;19919;-94
2023/06/14 05:46:25;;;;;;;6.50;3.80;;;;;;;18.27;100.00;98121.81;5106811;28;20062;-93
2023/06/14 05:48:51;;;;;;;7.28;4.13;;;;;;;18.39;100.00;98140.75;5101612;28;20040;-96
2023/06/14 05:51:20;;;;;;;6.68;3.88;;;;;;;18.25;100.00;98114.81;5107100;28;20043;-93
2023/06/14 05:53:46;;;;;;;7.38;3.85;;;;;;;18.42;100.00;98116.34;5109311;28;20054;-93
2023/06/14 05:56:14;;;;;;;6.72;3.47;;;;;;;18.60;100.00;98143.81;5112133;28;20051;-94
2023/06/14 05:58:41;;;;;;;6.80;3.53;;;;;;;18.59;100.00;98131.31;5111466;28;20063;-95
2023/06/14 06:01:07;;;;;;;6.72;3.65;;;;;;;18.37;100.00;98129.28;5110615;28;20078;-94
2023/06/14 06:03:33;;;;;;;6.75;4.10;;;;;;;18.34;100.00;98124.06;5110429;28;20111;-92
2023/06/14 06:06:00;;;;;;;7.05;4.10;;;;;;;18.44;100.00;98138.63;5110995;28;20107;-94
2023/06/14 06:08:26;;;;;;;8.50;3.92;;;;;;;18.36;100.00;98122.16;5112413;28;20117;-93
2023/06/14 06:10:52;;;;;;;7.28;3.58;;;;;;;18.52;100.00;98116.53;5127719;28;20062;-93
2023/06/14 06:13:20;;;;;;;6.40;3.92;;;;;;;18.58;100.00;98113.44;5110886;28;20048;-94
2023/06/14 06:15:47;;;;;;;8.10;4.35;;;;;;;18.59;100.00;98112.47;5112412;28;20089;-95
2023/06/14 06:18:14;;;;;;;7.43;4.10;;;;;;;18.75;100.00;98137.34;5112353;28;20044;-94
2023/06/14 06:20:40;;;;;;;7.93;4.10;;;;;;;18.83;100.00;98109.91;5112524;28;20059;-93
2023/06/14 06:23:07;;;;;;;8.20;4.70;;;;;;;19.13;100.00;98120.31;5108526;28;20051;-92
2023/06/14 06:25:33;;;;;;;11.35;5.22;;;;;;;19.22;100.00;98102.63;5106949;28;20491;-93
2023/06/14 06:28:00;;;;;;;10.18;5.35;;;;;;;19.41;100.00;98118.28;5107670;28;20040;-93
2023/06/14 06:30:27;;;;;;;12.45;6.22;;;;;;;19.47;100.00;98116.03;5109091;28;20305;-93
2023/06/14 06:32:53;;;;;;;9.75;6.30;;;;;;;19.44;100.00;98121.63;5110474;28;20419;-92
2023/06/14 06:35:19;;;;;;;10.63;5.65;;;;;;;19.42;100.00;98125.41;5109201;28;20048;-93
2023/06/14 06:37:45;;;;;;;12.90;6.80;;;;;;;19.49;100.00;98116.72;5109046;28;20047;-93
2023/06/14 06:40:12;;;;;;;15.18;7.82;;;;;;;19.71;100.00;98128.66;5109202;28;20047;-93
2023/06/14 06:42:38;;;;;;;13.00;7.10;;;;;;;19.58;100.00;98122.44;5107157;28;20051;-94
2023/06/14 06:45:05;;;;;;;13.60;7.38;;;;;;;19.78;100.00;98139.84;5109168;28;20047;-92
2023/06/14 06:47:33;;;;;;;15.68;7.55;;;;;;;19.16;100.00;98124.63;5108520;28;20068;-92
2023/06/14 06:49:59;;;;;;;12.93;6.88;;;;;;;19.11;100.00;98130.34;5109565;28;20051;-93
2023/06/14 06:52:26;;;;;;;12.90;7.72;;;;;;;18.78;100.00;98136.28;5109011;28;20070;-93
2023/06/14 06:54:54;;;;;;;16.60;9.00;;;;;;;18.68;100.00;98138.75;5107933;28;20039;-93
2023/06/14 06:57:20;;;;;;;;;;;;;;;19.01;100.00;98175.94;5108034;28;20130;-95
2023/06/14 06:59:46;;;;;;;14.20;7.43;;;;;;;19.14;100.00;98156.22;5107499;28;19936;-95
2023/06/14 07:02:12;;;;;;;12.90;7.00;;;;;;;19.34;100.00;98144.81;5107390;28;20114;-94
2023/06/14 07:04:40;;;;;;;14.30;7.10;;;;;;;19.55;100.00;98141.53;5107843;28;20047;-94
2023/06/14 07:07:09;;;;;;;13.30;7.13;;;;;;;19.58;100.00;98142.19;5107987;28;20047;-94
2023/06/14 07:09:35;;;;;;;13.18;6.95;;;;;;;19.72;100.00;98140.34;5107381;28;20111;-95
2023/06/14 07:12:01;;;;;;;13.23;7.00;;;;;;;19.91;100.00;98148.78;5108498;28;20054;-94
2023/06/14 07:14:29;;;;;;;17.10;8.00;;;;;;;20.11;100.00;98152.66;5106916;28;20048;-95
2023/06/14 07:16:55;;;;;;;13.00;6.60;;;;;;;19.96;100.00;98151.13;5108622;28;20188;-94
2023/06/14 07:19:21;;;;;;;15.13;6.57;;;;;;;20.08;100.00;98153.75;5107251;28;20127;-94
2023/06/14 07:21:49;;;;;;;12.40;6.28;;;;;;;20.39;100.00;98177.56;5108034;28;20067;-94
2023/06/14 07:24:15;;;;;;;13.90;7.47;;;;;;;20.60;100.00;98158.84;5107936;28;20110;-96
2023/06/14 07:26:42;;;;;;;14.75;6.90;;;;;;;20.74;100.00;98152.38;5107660;28;20075;-94
2023/06/14 07:29:08;;;;;;;12.15;6.82;;;;;;;20.84;100.00;98153.34;5107375;28;20039;-94
2023/06/14 07:31:34;;;;;;;10.55;6.35;;;;;;;21.04;100.00;98155.34;5108239;28;20046;-95
2023/06/14 07:34:00;;;;;;;11.57;6.10;;;;;;;21.34;100.00;98172.81;5108625;28;20565;-94
2023/06/14 07:36:27;;;;;;;10.90;5.60;;;;;;;21.49;100.00;98158.06;5107234;28;20124;-95
2023/06/14 07:38:56;;;;;;;;;;;;;;;21.98;100.00;98191.03;5107058;28;20039;-96
2023/06/14 07:41:22;;;;;;;8.82;5.50;;;;;;;22.08;100.00;98153.25;5107037;28;19978;-95
2023/06/14 07:43:49;;;;;;;9.60;5.50;;;;;;;22.30;100.00;98172.13;5107249;28;20486;-96
2023/06/14 07:46:15;;;;;;;8.18;5.30;;;;;;;22.46;100.00;98141.00;5108617;28;20044;-95
2023/06/14 07:48:41;;;;;;;9.48;4.78;;;;;;;22.88;100.00;98162.66;5107427;28;20043;-94
2023/06/14 07:51:07;;;;;;;9.30;5.35;;;;;;;22.98;100.00;98155.44;5109724;28;20384;-93
2023/06/14 07:53:33;;;;;;;12.52;5.78;;;;;;;22.93;100.00;98168.56;5106179;28;20051;-96
2023/06/14 07:56:02;;;;;;;10.15;5.57;;;;;;;22.69;100.00;98145.31;5106046;28;20050;-94
2023/06/14 07:58:28;;;;;;;9.88;5.68;;;;;;;22.62;100.00;98154.97;5105624;28;20035;-94
2023/06/14 08:00:54;;;;;;;9.27;5.53;;;;;;;21.99;100.00;98151.28;5105818;28;20135;-95
2023/06/14 08:03:22;;;;;;;9.50;5.60;;;;;;;21.70;100.00;98165.41;5105475;28;20043;-96
2023/06/14 08:05:48;;;;;;;9.85;6.05;;;;;;;21.57;100.00;98156.56;5104975;28;20496;-96
2023/06/14 08:08:14;;;;;;;13.18;5.78;;;;;;;21.30;100.00;98180.28;5105629;28;20043;-96
2023/06/14 08:10:41;;;;;;;11.07;5.85;;;;;;;21.18;100.00;98166.91;5106427;28;20394;-94
2023/06/14 08:13:09;;;;;;;8.05;5.50;;;;;;;22.28;100.00;98163.25;5105402;28;20404;-96
2023/06/14 08:15:36;;;;;;;10.73;6.25;;;;;;;22.27;100.00;98161.56;5123499;28;20040;-95
2023/06/14 08:18:03;;;;;;;9.20;6.03;;;;;;;22.62;100.00;98160.38;5109014;28;20069;-95
2023/06/14 08:20:31;;;;;;;12.57;6.20;;;;;;;22.29;100.00;98177.66;5108155;28;20473;-96
2023/06/14 08:22:58;;;;;;;11.85;6.60;;;;;;;21.59;100.00;98162.72;5105307;28;20055;-95
2023/06/14 08:25:24;;;;;;;11.07;6.55;;;;;;;21.19;100.00;98165.91;5106726;28;20040;-95
2023/06/14 08:27:50;;;;;;;15.10;7.25;;;;;;;21.26;100.00;98165.31;5108086;28;20067;-95
2023/06/14 08:30:18;;;;;;;11.68;6.13;;;;;;;21.76;100.00;98156.78;5109259;28;20068;-95
2023/06/14 08:32:45;;;;;;;11.97;6.73;;;;;;;22.17;100.00;98166.00;5109137;28;20036;-94
2023/06/14 08:35:12;;;;;;;11.10;6.50;;;;;;;21.72;100.00;98153.44;5110043;28;20043;-95
2023/06/14 08:37:41;;;;;;;12.10;6.32;;;;;;;21.88;100.00;98153.06;5110403;28;20047;-95
2023/06/14 08:40:19;;;;;;;10.00;6.40;;;;;;;21.82;100.00;98156.28;5109087;28;20074;-94
2023/06/14 08:42:48;;;;;;;10.73;6.30;;;;;;;21.99;100.00;98162.09;5108683;28;20138;-95
2023/06/14 08:45:14;;;;;;;10.65;6.55;;;;;;;21.65;100.00;98171.19;5109084;28;20051;-95
2023/06/14 08:47:42;;;;;;;11.77;6.40;;;;;;;21.68;100.00;98159.25;5109166;28;20040;-95
2023/06/14 08:50:12;;;;;;;13.02;7.55;;;;;;;20.84;100.00;98172.28;5106045;28;20044;-94
2023/06/14 08:52:45;;;;;;;14.43;7.18;;;;;;;20.99;100.00;98168.38;5108640;28;20389;-95
2023/06/14 08:55:12;;;;;;;17.45;7.72;;;;;;;21.37;100.00;98186.06;5107630;28;20134;-94
2023/06/14 08:57:41;;;;;;;17.50;7.68;;;;;;;21.81;100.00;98172.63;5109580;28;20044;-95
2023/06/14 09:00:12;;;;;;;10.80;7.20;;;;;;;22.27;100.00;98156.16;5109057;28;20101;-94
2023/06/14 09:02:43;;;;;;;13.35;7.20;;;;;;;22.17;100.00;98159.72;5108762;28;20075;-94
2023/06/14 09:05:13;;;;;;;12.85;6.30;;;;;;;22.76;100.00;98157.31;5107364;28;20051;-94
2023/06/14 09:07:40;;;;;;;12.65;6.20;;;;;;;23.26;100.00;98155.75;5108150;28;20044;-94
2023/06/14 09:10:09;;;;;;;12.93;6.70;;;;;;;23.85;100.00;98152.22;5108903;28;20058;-95
2023/06/14 09:12:38;;;;;;;14.52;6.63;;;;;;;23.95;100.00;98150.41;5107265;28;20039;-95
2023/06/14 09:15:06;;;;;;;10.18;6.35;;;;;;;24.25;100.00;98151.28;5107717;28;20039;-94
2023/06/14 09:17:34;;;;;;;14.17;7.03;;;;;;;24.90;93.58;98145.22;5108536;28;20040;-95
2023/06/14 09:20:00;;;;;;;;;;;;;;;25.33;92.00;98173.72;5106714;28;20400;-94
2023/06/14 09:22:29;;;;;;;16.27;6.90;;;;;;;24.70;94.82;98160.69;5120416;28;19915;-94
2023/06/14 09:24:55;;;;;;;17.48;7.18;;;;;;;24.06;100.00;98157.56;5102814;28;20078;-94
2023/06/14 09:27:21;;;;;;;10.23;6.25;;;;;;;24.67;97.26;98144.69;5103160;28;20493;-94
2023/06/14 09:33:08;;;;;;;10.18;5.93;;;;;;;25.69;85.20;98133.84;5096649;28;20038;-95
2023/06/14 09:35:34;;;;;;;9.70;6.28;;;;;;;24.60;92.11;98144.41;5103146;28;20114;-93
2023/06/14 09:38:02;;;;;;;10.10;6.07;;;;;;;23.48;95.20;98136.53;5090798;28;20040;-94
2023/06/14 09:40:28;;;;;;;9.80;5.60;;;;;;;24.68;93.07;98128.25;5082663;28;20062;-94
2023/06/14 09:42:57;;;;;;;10.70;5.85;;;;;;;25.37;88.08;98143.34;5080605;28;20052;-93
2023/06/14 09:45:24;;;;;;;10.68;5.40;;;;;;;25.44;88.94;98121.84;5081902;28;20489;-93
2023/06/14 09:47:51;;;;;;;12.27;5.72;;;;;;;25.95;88.98;98155.78;5085412;28;20051;-94
2023/06/14 09:50:17;;;;;;;9.77;5.72;;;;;;;25.71;85.24;98129.09;5086535;28;20083;-94
2023/06/14 09:52:44;;;;;;;9.25;5.47;;;;;;;26.13;83.23;98144.03;5092857;28;20467;-94
2023/06/14 09:55:19;;;;;;;9.93;6.37;;;;;;;26.39;82.56;98145.00;5103312;28;20047;-94
2023/06/14 09:57:48;;;;;;;8.63;4.80;;;;;;;26.53;78.34;98121.75;5095476;28;20043;-95
2023/06/14 10:00:16;;;;;;;8.13;5.22;;;;;;;26.76;77.07;98121.25;5090116;28;20040;-95
2023/06/14 10:02:47;;;;;;;;;;;;;;;26.90;76.60;98144.38;5084996;28;20065;-94
2023/06/14 10:05:15;;;;;;;9.43;5.68;;;;;;;26.82;77.39;98099.63;5103856;28;19916;-95
2023/06/14 10:07:48;;;;;;;7.65;4.75;;;;;;;26.43;78.83;98130.00;5086219;28;20504;-95
2023/06/14 10:10:15;;;;;;;8.18;4.70;;;;;;;25.87;82.92;98097.59;5087488;28;20040;-94
2023/06/14 10:12:41;;;;;;;8.23;5.13;;;;;;;25.28;88.35;98089.81;5086518;28;20511;-95
2023/06/14 10:15:12;;;;;;;12.45;5.10;;;;;;;25.34;87.78;98086.50;5085685;28;20071;-93
2023/06/14 10:17:43;;;;;;;10.60;5.18;;;;;;;25.95;79.58;98108.63;5084836;28;20044;-93
2023/06/14 10:20:26;;;;;;;11.15;5.65;;;;;;;26.16;84.72;98092.81;5086167;28;20151;-94
2023/06/14 10:22:59;;;;;;;8.75;5.30;;;;;;;26.42;85.57;98095.59;5102088;28;20111;-94
2023/06/14 10:25:31;;;;;;;10.55;6.07;;;;;;;26.19;79.05;98095.22;5085868;28;20044;-95
2023/06/14 10:28:17;;;;;;;10.43;5.22;;;;;;;25.91;81.39;98078.09;5086413;28;20497;-94
2023/06/14 10:31:08;;;;;;;8.05;5.07;;;;;;;25.91;84.08;98110.78;5088602;28;20044;-94
2023/06/14 10:33:35;;;;;;;9.75;6.75;;;;;;;25.29;84.79;98096.13;5103690;28;20044;-94
2023/06/14 10:36:27;;;;;;;8.77;5.82;;;;;;;24.70;90.04;98103.59;5105075;28;20051;-95
2023/06/14 10:39:04;;;;;;;9.10;5.60;;;;;;;24.69;85.22;98089.16;5101874;28;20065;-95
2023/06/14 10:41:34;;;;;;;8.82;5.53;;;;;;;24.33;88.62;98097.09;5123432;28;20047;-93
2023/06/14 10:44:48;;;;;;;9.27;5.40;;;;;;;23.86;92.19;98109.66;5104423;28;20075;-94
2023/06/14 10:47:25;;;;;;;9.13;5.97;;;;;;;23.57;94.05;98108.59;5085581;28;20036;-93
2023/06/14 10:49:52;;;;;;;10.00;5.53;;;;;;;23.16;95.72;98079.75;5085121;28;20048;-94
2023/06/14 10:52:23;;;;;;;12.55;5.78;;;;;;;23.13;97.57;98078.19;5084945;28;20044;-94
2023/06/14 10:55:11;;;;;;;10.15;6.10;;;;;;;23.29;97.31;98087.66;5085080;28;20411;-94
2023/06/14 10:57:42;;;;;;;8.18;5.45;;;;;;;23.27;96.18;98119.47;5081747;28;20048;-95
2023/06/14 11:00:15;;;;;;;8.93;5.50;;;;;;;23.20;95.46;98091.19;5085165;28;20040;-95
2023/06/14 11:03:23;;;;;;;8.68;5.70;;;;;;;23.52;96.32;98120.84;5085074;28;20151;-96
2023/06/14 11:05:52;;;;;;;8.98;5.65;;;;;;;23.35;99.06;98092.53;5084424;28;20116;-96
2023/06/14 11:08:52;;;;;;;8.18;5.03;;;;;;;23.33;100.00;98086.38;5085942;28;20473;-94
2023/06/14 11:11:23;;;;;;;8.27;5.78;;;;;;;23.06;100.00;98093.31;5085005;28;20102;-95
2023/06/14 11:13:51;;;;;;;12.15;5.70;;;;;;;22.96;100.00;98101.34;5084348;28;20151;-94
2023/06/14 11:16:19;;;;;;;10.57;5.70;;;;;;;22.63;100.00;98102.47;5085415;28;20120;-93
2023/06/14 11:18:45;;;;;;;8.32;5.45;;;;;;;22.73;100.00;98132.34;5084392;28;20036;-95
2023/06/14 11:21:15;;;;;;;9.75;5.97;;;;;;;22.45;100.00;98090.53;5084148;28;20052;-94
2023/06/14 11:23:41;;;;;;;10.38;5.97;;;;;;;22.39;100.00;98082.94;5086297;28;20044;-94
2023/06/14 11:26:07;;;;;;;8.85;6.22;;;;;;;22.26;100.00;98097.53;5087212;28;20682;-95
2023/06/14 11:28:37;;;;;;;9.65;6.15;;;;;;;22.21;100.00;98107.88;5088275;28;20063;-95
2023/06/14 11:31:05;;;;;;;11.57;6.30;;;;;;;22.01;100.00;98100.56;5087666;28;20044;-94
2023/06/14 11:33:31;;;;;;;9.65;6.15;;;;;;;21.94;100.00;98120.03;5084237;28;20068;-94